Rhododendron Park, Washington
Current Conditions -  °F | °C
As of 1:58 AM on Wednesday 26 Nov 2014 (Local Time) from KTCM Reporting Station
Overcast Overcast  
Wind Chill: 56°   Ceiling: 4100
Heat Index: 56°   Visibility: 10mi
Dew Point: 55°   Wind: 13mph
Humidity: 99%   Direction: 190°S
Pressure: 30.2"   Gusts: NA
Location:  47.1874°N, 122.164°W
Report Text: KTCM 260958Z AUTO 19011KT 10SM FEW028 OVC041 13/13 A3020 RMK AO2 SLP231 T01320130 $
Loading
Personal Weather Stations






























Interactive Weather Map New forecast layout! Learn more

10-Day Weather Forecast

Advertisements
Track Severe Weather on mobile